Time;durP1;ratioP1;P1;durP2;ratioP2;P2;SDS_P1;SDS_P2;PMS_P1;PMS_P2;Temp;Humidity;BMP_temperature;BMP_pressure;BME280_temperature;BME280_humidity;BME280_pressure;Samples;Min_cycle;Max_cycle;Signal;HPM_P1;HPM_P2
2023/04/23 00:01:57;;;;;;;37.58;33.53;;;;;;;7.73;100.00;100704.31;5028248;28;20030;-59
2023/04/23 00:04:24;;;;;;;38.63;34.53;;;;;;;7.68;100.00;100700.56;5027414;28;20396;-61
2023/04/23 00:06:51;;;;;;;38.05;33.97;;;;;;;7.66;100.00;100700.78;5029190;28;20030;-60
2023/04/23 00:09:17;;;;;;;41.10;34.50;;;;;;;7.60;100.00;100696.16;5029223;28;20079;-60
2023/04/23 00:11:43;;;;;;;42.17;36.53;;;;;;;7.56;100.00;100683.16;5029312;28;20035;-57
2023/04/23 00:14:09;;;;;;;42.47;37.58;;;;;;;7.50;100.00;100691.16;5029748;28;20123;-60
2023/04/23 00:16:34;;;;;;;40.47;36.08;;;;;;;7.46;100.00;100681.69;5028367;28;20412;-60
2023/04/23 00:19:00;;;;;;;45.20;38.05;;;;;;;7.46;100.00;100684.44;5029239;28;20060;-59
2023/04/23 00:21:26;;;;;;;40.40;35.42;;;;;;;7.42;100.00;100687.81;5028017;28;20026;-60
2023/04/23 00:23:51;;;;;;;41.40;35.25;;;;;;;7.36;100.00;100677.75;5029148;28;20529;-60
2023/04/23 00:26:17;;;;;;;40.72;35.53;;;;;;;7.31;100.00;100681.13;5027949;28;20055;-61
2023/04/23 00:28:42;;;;;;;41.08;35.50;;;;;;;7.23;100.00;100679.44;5029268;28;20033;-60
2023/04/23 00:31:08;;;;;;;40.47;35.67;;;;;;;7.20;100.00;100677.13;5029814;28;20021;-60
2023/04/23 00:33:33;;;;;;;42.40;36.40;;;;;;;7.20;100.00;100666.22;5029121;28;20029;-60
2023/04/23 00:35:58;;;;;;;43.88;36.65;;;;;;;7.19;100.00;100664.50;5027977;28;20022;-60
2023/04/23 00:38:25;;;;;;;40.92;35.03;;;;;;;7.16;100.00;100667.69;5029257;28;20124;-60
2023/04/23 00:40:50;;;;;;;43.28;37.03;;;;;;;7.15;100.00;100660.56;5027817;28;20079;-60
2023/04/23 00:43:16;;;;;;;39.67;34.83;;;;;;;7.16;100.00;100662.22;5028841;28;20461;-60
2023/04/23 00:45:41;;;;;;;41.58;35.63;;;;;;;7.20;100.00;100663.50;5029226;28;20049;-60
2023/04/23 00:48:07;;;;;;;40.80;35.10;;;;;;;7.20;100.00;100659.91;5028624;28;20108;-63
2023/04/23 00:50:32;;;;;;;40.00;34.65;;;;;;;7.19;100.00;100656.31;5029033;28;20037;-60
2023/04/23 00:52:58;;;;;;;41.13;35.05;;;;;;;7.16;100.00;100656.75;5027385;28;20112;-61
2023/04/23 00:55:24;;;;;;;39.75;34.10;;;;;;;7.19;100.00;100653.59;5027797;28;20029;-60
2023/04/23 00:57:49;;;;;;;38.03;33.80;;;;;;;7.20;100.00;100652.56;5028756;28;20075;-59
2023/04/23 01:00:15;;;;;;;39.95;33.97;;;;;;;7.22;100.00;100652.34;5027198;28;20368;-61
2023/04/23 01:02:42;;;;;;;36.30;32.08;;;;;;;7.22;100.00;100646.88;5029192;28;20060;-60
2023/04/23 01:05:09;;;;;;;36.60;32.67;;;;;;;7.21;100.00;100632.38;5027956;28;20112;-60
2023/04/23 01:07:36;;;;;;;37.65;33.55;;;;;;;7.23;100.00;100637.63;5027829;28;20604;-60
2023/04/23 01:10:04;;;;;;;38.58;32.60;;;;;;;7.26;100.00;100637.19;5027813;28;20033;-59
2023/04/23 01:12:29;;;;;;;39.97;35.00;;;;;;;7.31;100.00;100633.84;5026948;28;20479;-61
2023/04/23 01:14:54;;;;;;;36.10;32.17;;;;;;;7.32;100.00;100633.59;5027437;28;20028;-63
2023/04/23 01:17:20;;;;;;;37.15;33.15;;;;;;;7.35;100.00;100629.59;5028259;28;20032;-59
2023/04/23 01:19:45;;;;;;;37.50;32.83;;;;;;;7.36;100.00;100626.66;5028118;28;20025;-59
2023/04/23 01:22:12;;;;;;;36.40;32.45;;;;;;;7.38;100.00;100623.72;5028483;28;20065;-60
2023/04/23 01:24:38;;;;;;;35.50;31.75;;;;;;;7.40;100.00;100621.59;5027375;28;20076;-60
2023/04/23 01:27:03;;;;;;;35.22;31.42;;;;;;;7.38;100.00;100612.78;5026118;28;20030;-59
2023/04/23 01:29:29;;;;;;;36.00;31.42;;;;;;;7.36;100.00;100621.19;5028248;28;20029;-60
2023/04/23 01:31:56;;;;;;;34.65;30.83;;;;;;;7.35;100.00;100616.81;5027864;28;20034;-59
2023/04/23 01:34:21;;;;;;;33.45;29.67;;;;;;;7.34;100.00;100619.72;5027468;28;20033;-60
2023/04/23 01:36:47;;;;;;;34.92;31.17;;;;;;;7.32;100.00;100617.22;5027883;28;20428;-60
2023/04/23 01:39:13;;;;;;;34.60;30.80;;;;;;;7.33;100.00;100612.59;5027610;28;20041;-58
2023/04/23 01:41:39;;;;;;;34.53;30.83;;;;;;;7.31;100.00;100617.44;5027701;28;20455;-60
2023/04/23 01:44:04;;;;;;;33.15;29.58;;;;;;;7.28;100.00;100611.34;5027293;28;20087;-60
2023/04/23 01:46:30;;;;;;;33.88;30.27;;;;;;;7.28;100.00;100619.53;5027400;28;20041;-59
2023/04/23 01:48:55;;;;;;;32.42;28.92;;;;;;;7.27;100.00;100617.03;5027939;28;20136;-60
2023/04/23 01:51:22;;;;;;;33.45;29.95;;;;;;;7.26;100.00;100624.38;5026914;28;20373;-60
2023/04/23 01:53:47;;;;;;;33.30;29.55;;;;;;;7.25;100.00;100617.25;5027718;28;20503;-60
2023/04/23 01:56:15;;;;;;;32.45;29.02;;;;;;;7.28;100.00;100616.81;5026780;28;20069;-59
2023/04/23 01:58:40;;;;;;;31.20;28.03;;;;;;;7.28;100.00;100616.81;5027661;28;20108;-60
2023/04/23 02:01:05;;;;;;;31.65;28.40;;;;;;;7.26;100.00;100613.47;5027578;28;20495;-60
2023/04/23 02:03:32;;;;;;;31.77;28.48;;;;;;;7.28;100.00;100607.78;5027257;28;20034;-60
2023/04/23 02:05:58;;;;;;;31.00;27.80;;;;;;;7.28;100.00;100608.59;5026851;28;20123;-60
2023/04/23 02:08:25;;;;;;;30.38;27.27;;;;;;;7.31;100.00;100617.44;5026498;28;20385;-60
2023/04/23 02:10:50;;;;;;;30.77;27.52;;;;;;;7.29;100.00;100607.53;5025978;28;20388;-60
2023/04/23 02:13:15;;;;;;;30.98;27.67;;;;;;;7.28;100.00;100607.78;5026718;28;20116;-60
2023/04/23 02:15:41;;;;;;;31.40;28.30;;;;;;;7.27;100.00;100600.63;5027253;28;20021;-60
2023/04/23 02:18:07;;;;;;;30.58;27.48;;;;;;;7.25;100.00;100609.06;5026342;28;20036;-60
2023/04/23 02:20:35;;;;;;;31.23;28.17;;;;;;;7.22;100.00;100606.75;5027436;28;20041;-60
2023/04/23 02:23:01;;;;;;;30.77;27.67;;;;;;;7.20;100.00;100602.56;5026410;28;20412;-60
2023/04/23 02:25:26;;;;;;;29.60;26.70;;;;;;;7.17;100.00;100598.34;5026245;28;20028;-59
2023/04/23 02:27:51;;;;;;;29.83;26.88;;;;;;;7.15;100.00;100592.28;5026562;28;20025;-60
2023/04/23 02:30:16;;;;;;;30.00;27.00;;;;;;;7.20;100.00;100588.91;5026533;28;20412;-60
2023/04/23 02:32:42;;;;;;;30.25;27.20;;;;;;;7.18;100.00;100597.28;5026685;28;20025;-60
2023/04/23 02:35:09;;;;;;;29.92;26.83;;;;;;;7.17;100.00;100597.50;5026599;28;20037;-60
2023/04/23 02:37:35;;;;;;;28.75;25.95;;;;;;;7.16;100.00;100598.56;5025707;28;20029;-59
2023/04/23 02:40:02;;;;;;;29.75;26.77;;;;;;;7.15;100.00;100600.47;5026099;28;20057;-60
2023/04/23 02:42:27;;;;;;;30.05;27.05;;;;;;;7.15;100.00;100594.16;5026182;28;20072;-60
2023/04/23 02:44:53;;;;;;;28.92;26.10;;;;;;;7.14;100.00;100595.19;5074565;22;20062;-59
2023/04/23 02:47:18;;;;;;;28.95;26.15;;;;;;;7.15;100.00;100602.38;5024995;28;20125;-59
2023/04/23 02:49:43;;;;;;;27.88;25.08;;;;;;;7.16;100.00;100598.56;5033898;28;20091;-59
2023/04/23 02:52:09;;;;;;;29.63;26.73;;;;;;;7.14;100.00;100597.94;5027269;28;20036;-60
2023/04/23 02:54:35;;;;;;;27.70;24.92;;;;;;;7.14;100.00;100589.75;5023478;28;20601;-61
2023/04/23 02:57:01;;;;;;;27.88;25.08;;;;;;;7.16;100.00;100587.66;5025356;28;20480;-60
2023/04/23 02:59:27;;;;;;;27.25;24.65;;;;;;;7.16;100.00;100604.88;5025563;28;20471;-61
2023/04/23 03:01:53;;;;;;;27.73;25.08;;;;;;;7.21;100.00;100598.78;5023507;28;20091;-61
2023/04/23 03:04:19;;;;;;;27.70;25.02;;;;;;;7.22;100.00;100598.53;5024529;28;20119;-60
2023/04/23 03:06:44;;;;;;;27.08;24.48;;;;;;;7.25;100.00;100597.28;5023459;28;20033;-61
2023/04/23 03:09:10;;;;;;;28.23;25.52;;;;;;;7.28;100.00;100594.94;5023692;28;20037;-60
2023/04/23 03:11:35;;;;;;;26.80;24.17;;;;;;;7.34;100.00;100590.50;5024559;28;20025;-60
2023/04/23 03:14:01;;;;;;;26.92;24.33;;;;;;;7.37;100.00;100587.34;5024791;28;20478;-61
2023/04/23 03:16:27;;;;;;;27.27;24.77;;;;;;;7.41;100.00;100585.03;5023506;28;20029;-61
2023/04/23 03:18:52;;;;;;;27.73;25.13;;;;;;;7.45;100.00;100583.53;5024645;28;20018;-59
2023/04/23 03:21:18;;;;;;;27.85;25.25;;;;;;;7.46;100.00;100580.59;5024298;28;20531;-60
2023/04/23 03:23:43;;;;;;;27.67;25.08;;;;;;;7.49;100.00;100571.13;5025125;28;20428;-61
2023/04/23 03:26:08;;;;;;;26.08;23.55;;;;;;;7.49;100.00;100573.84;5022816;28;20033;-61
2023/04/23 03:28:34;;;;;;;25.67;23.30;;;;;;;7.49;100.00;100579.31;5033235;28;20083;-62
2023/04/23 03:30:59;;;;;;;25.30;22.90;;;;;;;7.48;100.00;100569.44;5024847;28;20033;-61
2023/04/23 03:33:24;;;;;;;24.48;22.08;;;;;;;7.46;100.00;100568.84;5025473;28;20372;-61
2023/04/23 03:35:50;;;;;;;24.98;22.67;;;;;;;7.42;100.00;100567.59;5032170;28;20037;-60
2023/04/23 03:38:15;;;;;;;25.40;22.90;;;;;;;7.42;100.00;100584.81;5026012;28;20431;-62
2023/04/23 03:40:40;;;;;;;25.60;23.10;;;;;;;7.41;100.00;100574.13;5022560;28;20394;-61
2023/04/23 03:43:06;;;;;;;24.80;22.50;;;;;;;7.43;100.00;100572.00;5024652;28;20075;-61
2023/04/23 03:45:31;;;;;;;23.88;21.58;;;;;;;7.41;100.00;100568.66;5021819;28;20025;-60
2023/04/23 03:47:56;;;;;;;23.05;20.90;;;;;;;7.42;100.00;100564.84;5023354;28;20036;-60
2023/04/23 03:50:22;;;;;;;23.33;21.08;;;;;;;7.47;100.00;100567.78;5034120;28;20430;-61
2023/04/23 03:52:47;;;;;;;23.08;20.98;;;;;;;7.48;100.00;100570.28;5022926;28;20026;-60
2023/04/23 03:55:12;;;;;;;23.77;21.48;;;;;;;7.51;100.00;100563.56;5024290;28;20481;-61
2023/04/23 03:57:38;;;;;;;24.52;22.23;;;;;;;7.55;100.00;100564.78;5021914;28;20037;-61
2023/04/23 04:00:07;;;;;;;24.58;22.38;;;;;;;7.59;100.00;100574.22;5025764;28;20515;-60
2023/04/23 04:02:32;;;;;;;24.35;22.08;;;;;;;7.64;100.00;100563.47;5013854;28;20079;-60
2023/04/23 04:04:57;;;;;;;24.38;22.08;;;;;;;7.69;100.00;100573.75;5022767;28;20471;-61
2023/04/23 04:07:23;;;;;;;24.48;22.02;;;;;;;7.71;100.00;100572.50;5022466;28;20083;-60
2023/04/23 04:09:48;;;;;;;24.92;22.50;;;;;;;7.74;100.00;100574.78;5022253;28;20388;-61
2023/04/23 04:12:14;;;;;;;25.10;22.83;;;;;;;7.76;100.00;100583.59;5022699;28;20030;-60
2023/04/23 04:14:40;;;;;;;24.13;21.92;;;;;;;7.80;100.00;100578.53;5024823;28;20036;-60
2023/04/23 04:17:05;;;;;;;24.45;22.13;;;;;;;7.83;100.00;100583.56;5023606;28;20025;-61
2023/04/23 04:19:30;;;;;;;23.48;21.27;;;;;;;7.87;100.00;100586.72;5023447;28;20034;-60
2023/04/23 04:21:56;;;;;;;22.38;20.33;;;;;;;7.93;100.00;100583.09;5023779;28;20116;-61
2023/04/23 04:24:21;;;;;;;23.30;21.23;;;;;;;7.96;100.00;100571.72;5021885;28;20033;-61
2023/04/23 04:26:48;;;;;;;22.15;20.25;;;;;;;8.02;100.00;100570.84;5024208;28;20033;-60
2023/04/23 04:29:13;;;;;;;21.98;19.95;;;;;;;8.05;100.00;100581.31;5023614;28;20106;-61
2023/04/23 04:31:39;;;;;;;21.48;19.48;;;;;;;8.10;100.00;100580.66;5023623;28;20963;-60
2023/04/23 04:34:06;;;;;;;21.25;19.25;;;;;;;8.13;100.00;100578.31;5026340;28;20464;-61
2023/04/23 04:36:31;;;;;;;22.65;20.50;;;;;;;8.17;100.00;100579.56;5026411;28;20498;-60
2023/04/23 04:38:57;;;;;;;21.73;19.73;;;;;;;8.24;100.00;100585.81;5027448;28;20029;-61
2023/04/23 04:41:24;;;;;;;20.98;19.13;;;;;;;8.25;100.00;100576.53;5038056;28;20057;-60
2023/04/23 04:43:50;;;;;;;21.98;19.98;;;;;;;8.27;100.00;100581.81;5026316;28;20041;-61
2023/04/23 04:46:18;;;;;;;21.92;19.92;;;;;;;8.31;100.00;100586.63;5028110;28;20029;-59
2023/04/23 04:48:44;;;;;;;19.60;17.80;;;;;;;8.36;100.00;100571.41;5031233;28;20044;-59
2023/04/23 04:51:09;;;;;;;21.48;19.55;;;;;;;8.36;100.00;100572.28;5030177;28;20034;-61
2023/04/23 04:53:34;;;;;;;20.67;18.77;;;;;;;8.36;100.00;100569.53;5027691;28;20052;-61
2023/04/23 04:56:00;;;;;;;19.73;17.92;;;;;;;8.36;100.00;100571.41;5025078;28;20479;-60
2023/04/23 04:58:25;;;;;;;19.95;18.15;;;;;;;8.38;100.00;100567.44;5026746;28;20039;-61
2023/04/23 05:00:50;;;;;;;19.63;17.90;;;;;;;8.39;100.00;100571.00;5026403;28;20033;-61
2023/04/23 05:03:17;;;;;;;20.45;18.48;;;;;;;8.38;100.00;100572.91;5026419;28;20037;-60
2023/04/23 05:05:43;;;;;;;19.75;17.95;;;;;;;8.37;100.00;100578.59;5027972;28;20033;-61
2023/04/23 05:08:09;;;;;;;20.73;18.55;;;;;;;8.38;100.00;100577.53;5025979;28;20029;-61
2023/04/23 05:10:35;;;;;;;19.73;17.90;;;;;;;8.40;100.00;100576.25;5024120;28;20029;-61
2023/04/23 05:13:00;;;;;;;19.60;17.80;;;;;;;8.43;100.00;100574.97;5027056;28;20107;-60
2023/04/23 05:15:25;;;;;;;19.52;17.83;;;;;;;8.43;100.00;100580.44;5025567;28;20572;-60
2023/04/23 05:17:53;;;;;;;19.67;17.77;;;;;;;8.47;100.00;100585.25;5027462;28;20599;-59
2023/04/23 05:20:19;;;;;;;18.52;16.90;;;;;;;8.50;100.00;100573.00;5033330;28;20124;-61
2023/04/23 05:22:44;;;;;;;19.58;17.77;;;;;;;8.53;100.00;100573.41;5024459;28;20033;-61
2023/04/23 05:25:10;;;;;;;18.13;16.23;;;;;;;8.57;100.00;100573.81;5025985;28;20029;-60
2023/04/23 05:27:36;;;;;;;20.50;18.58;;;;;;;8.64;100.00;100580.03;5024838;28;20035;-60
2023/04/23 05:30:03;;;;;;;18.48;16.83;;;;;;;8.72;100.00;100578.94;5026394;28;20030;-61
2023/04/23 05:32:29;;;;;;;19.43;17.63;;;;;;;8.87;100.00;100589.50;5036080;28;20091;-61
2023/04/23 05:34:55;;;;;;;18.40;16.80;;;;;;;8.97;100.00;100590.69;5026517;28;20026;-61
2023/04/23 05:37:20;;;;;;;17.90;16.30;;;;;;;9.12;100.00;100576.59;5008761;28;20504;-61
2023/04/23 05:39:45;;;;;;;16.83;15.32;;;;;;;9.08;100.00;100576.22;5025642;28;20498;-61
2023/04/23 05:42:11;;;;;;;17.58;15.88;;;;;;;9.11;100.00;100574.94;5024896;28;20368;-61
2023/04/23 05:44:37;;;;;;;17.55;15.93;;;;;;;9.15;100.00;100578.91;5025720;28;20381;-61
2023/04/23 05:47:02;;;;;;;17.30;15.60;;;;;;;9.21;100.00;100574.41;5024374;28;20371;-60
2023/04/23 05:49:27;;;;;;;16.95;15.25;;;;;;;9.24;100.00;100573.94;5025182;28;20483;-61
2023/04/23 05:51:53;;;;;;;17.95;16.25;;;;;;;9.25;100.00;100568.22;5025770;28;20121;-62
2023/04/23 05:54:18;;;;;;;17.60;16.00;;;;;;;9.28;100.00;100573.28;5023117;28;20034;-61
2023/04/23 05:56:43;;;;;;;17.80;16.08;;;;;;;9.38;100.00;100570.00;5026564;28;20643;-59
2023/04/23 05:59:09;;;;;;;18.17;16.58;;;;;;;9.51;100.00;100574.47;5025730;28;20037;-61
2023/04/23 06:01:35;;;;;;;16.23;14.63;;;;;;;9.56;100.00;100567.22;5024658;28;20590;-60
2023/04/23 06:04:00;;;;;;;16.08;14.57;;;;;;;9.62;100.00;100560.78;5026703;28;20049;-61
2023/04/23 06:06:26;;;;;;;16.17;14.57;;;;;;;9.65;100.00;100575.97;5024210;28;20025;-61
2023/04/23 06:08:52;;;;;;;16.27;14.68;;;;;;;9.66;100.00;100572.16;5025041;28;20387;-60
2023/04/23 06:11:17;;;;;;;14.68;13.27;;;;;;;9.68;100.00;100567.28;5025331;28;20025;-61
2023/04/23 06:13:42;;;;;;;15.63;14.13;;;;;;;9.69;100.00;100571.69;5025350;28;20069;-60
2023/04/23 06:16:08;;;;;;;14.35;12.85;;;;;;;9.73;100.00;100577.53;5025874;28;20041;-61
2023/04/23 06:18:34;;;;;;;15.45;14.10;;;;;;;9.78;100.00;100562.09;5024471;28;20094;-60
2023/04/23 06:21:03;;;;;;;14.68;13.27;;;;;;;9.83;100.00;100561.34;5023318;28;20037;-61
2023/04/23 06:23:29;;;;;;;14.52;13.23;;;;;;;9.88;100.00;100554.13;5024818;28;20435;-61
2023/04/23 06:25:54;;;;;;;14.45;13.15;;;;;;;9.96;100.00;100555.69;5022005;28;20059;-61
2023/04/23 06:28:20;;;;;;;14.05;12.65;;;;;;;10.03;100.00;100558.31;5025794;28;20060;-61
2023/04/23 06:30:45;;;;;;;13.20;11.90;;;;;;;10.10;100.00;100550.84;5023271;28;20057;-61
2023/04/23 06:33:11;;;;;;;13.68;12.38;;;;;;;10.16;100.00;100552.66;5025185;28;20083;-61
2023/04/23 06:35:36;;;;;;;12.85;11.55;;;;;;;10.24;100.00;100537.75;5026388;28;20450;-61
2023/04/23 06:38:01;;;;;;;13.65;12.35;;;;;;;10.34;100.00;100533.38;5023319;28;20033;-60
2023/04/23 06:40:27;;;;;;;12.80;11.55;;;;;;;10.47;100.00;100534.22;5023905;28;20083;-61
2023/04/23 06:42:52;;;;;;;13.00;11.77;;;;;;;10.60;100.00;100539.50;5025392;28;20036;-60
2023/04/23 06:45:19;;;;;;;12.30;11.18;;;;;;;10.81;100.00;100546.28;5024316;28;20052;-61
2023/04/23 06:47:44;;;;;;;11.98;10.77;;;;;;;11.11;100.00;100533.22;5026521;28;20040;-60
2023/04/23 06:50:09;;;;;;;11.88;10.57;;;;;;;11.44;100.00;100540.78;5025143;28;20036;-60
2023/04/23 06:52:35;;;;;;;10.82;9.73;;;;;;;11.66;100.00;100527.22;5023275;28;20029;-61
2023/04/23 06:55:00;;;;;;;10.85;9.65;;;;;;;12.00;100.00;100531.97;5024431;28;20072;-60
2023/04/23 06:57:26;;;;;;;11.20;10.13;;;;;;;12.78;100.00;100528.31;5024525;28;20116;-61
2023/04/23 06:59:51;;;;;;;9.00;8.10;;;;;;;13.23;100.00;100522.63;5025762;28;20040;-60
2023/04/23 07:02:17;;;;;;;9.35;8.18;;;;;;;13.59;100.00;100519.47;5024964;28;20113;-61
2023/04/23 07:04:42;;;;;;;9.48;8.13;;;;;;;13.87;97.43;100524.72;5023988;28;20044;-61
2023/04/23 07:07:07;;;;;;;9.23;7.57;;;;;;;13.86;97.60;100525.81;5025111;28;20175;-60
2023/04/23 07:09:33;;;;;;;9.73;8.30;;;;;;;13.75;97.98;100515.78;4990131;28;20103;-61
2023/04/23 07:11:58;;;;;;;9.00;7.93;;;;;;;13.66;98.33;100520.09;5023242;28;20090;-61
2023/04/23 07:14:24;;;;;;;8.25;7.43;;;;;;;13.84;96.90;100525.25;5024239;28;20029;-61
2023/04/23 07:16:50;;;;;;;9.32;6.97;;;;;;;14.34;94.68;100515.75;5022646;28;20057;-61
2023/04/23 07:19:15;;;;;;;8.10;6.50;;;;;;;14.76;91.04;100501.19;5025352;28;20064;-60
2023/04/23 07:21:41;;;;;;;9.07;6.70;;;;;;;14.80;90.91;100518.91;5023710;28;20060;-61
2023/04/23 07:24:06;;;;;;;9.50;6.55;;;;;;;14.74;89.86;100517.19;5023597;28;20703;-61
2023/04/23 07:26:32;;;;;;;7.35;6.18;;;;;;;14.76;89.23;100523.31;5025446;28;20044;-61
2023/04/23 07:28:58;;;;;;;8.07;6.03;;;;;;;15.00;89.29;100510.72;5024205;28;20025;-61
2023/04/23 07:31:23;;;;;;;8.30;5.70;;;;;;;15.28;85.98;100523.31;5024974;28;20496;-61
2023/04/23 07:33:49;;;;;;;7.68;5.82;;;;;;;15.11;85.46;100527.38;5024029;28;20022;-62
2023/04/23 07:36:14;;;;;;;7.40;5.82;;;;;;;14.86;87.88;100509.53;5023505;28;20861;-58
2023/04/23 07:38:40;;;;;;;9.73;6.20;;;;;;;15.18;87.10;100511.34;5022127;28;20027;-61
2023/04/23 07:41:05;;;;;;;9.40;5.28;;;;;;;15.57;84.23;100517.34;5020796;28;20026;-61
2023/04/23 07:43:30;;;;;;;8.23;5.03;;;;;;;15.98;81.30;100509.97;5021635;28;20045;-59
2023/04/23 07:45:55;;;;;;;7.45;4.95;;;;;;;16.26;80.48;100505.00;5021965;28;20021;-61
2023/04/23 07:48:21;;;;;;;7.03;5.22;;;;;;;16.77;78.64;100502.22;5020363;28;20349;-61
2023/04/23 07:50:46;;;;;;;8.88;4.80;;;;;;;16.83;77.68;100501.94;5022494;28;20029;-61
2023/04/23 07:53:11;;;;;;;8.48;4.45;;;;;;;16.69;77.47;100500.81;5030820;28;20117;-61
2023/04/23 07:55:37;;;;;;;7.43;4.43;;;;;;;16.55;77.87;100491.41;5020639;28;20026;-60
2023/04/23 07:58:02;;;;;;;8.48;4.22;;;;;;;16.29;79.86;100507.22;5022815;28;20041;-61
2023/04/23 08:00:27;;;;;;;7.75;4.00;;;;;;;16.15;79.59;100495.84;5024446;28;20463;-61
2023/04/23 08:02:53;;;;;;;7.82;4.30;;;;;;;15.73;79.98;100499.69;5021807;28;20037;-60
2023/04/23 08:05:18;;;;;;;6.93;3.97;;;;;;;15.73;83.06;100498.84;5020936;28;20396;-61
2023/04/23 08:07:43;;;;;;;6.93;3.67;;;;;;;15.82;81.29;100500.00;5023890;28;20144;-61
2023/04/23 08:10:09;;;;;;;6.63;3.53;;;;;;;15.51;81.11;100499.03;5025785;28;20036;-60
2023/04/23 08:12:35;;;;;;;6.35;3.90;;;;;;;15.23;83.86;100498.38;5008422;28;20200;-62
2023/04/23 08:15:01;;;;;;;8.57;3.80;;;;;;;15.37;84.69;100489.59;5025180;28;20037;-61
2023/04/23 08:17:26;;;;;;;7.60;3.65;;;;;;;15.47;83.77;100487.69;5024585;28;20110;-59
2023/04/23 08:19:51;;;;;;;6.95;3.65;;;;;;;15.28;82.28;100487.34;5027335;28;20028;-59
2023/04/23 08:22:17;;;;;;;7.78;3.80;;;;;;;15.07;83.79;100490.28;5024945;28;20468;-60
2023/04/23 08:24:44;;;;;;;6.35;3.10;;;;;;;14.92;83.70;100496.56;5029085;28;20375;-61
2023/04/23 08:27:09;;;;;;;7.32;3.22;;;;;;;14.92;84.29;100482.75;5023881;28;20029;-61
2023/04/23 08:29:35;;;;;;;8.18;3.25;;;;;;;14.89;85.66;100478.56;5025663;28;20036;-58
2023/04/23 08:32:00;;;;;;;6.90;3.20;;;;;;;15.17;87.70;100479.28;5024357;28;20033;-61
2023/04/23 08:34:25;;;;;;;7.85;3.17;;;;;;;15.29;82.12;100468.78;5024932;28;20353;-61
2023/04/23 08:36:50;;;;;;;7.97;3.05;;;;;;;15.40;81.37;100469.66;5024969;28;20032;-61
2023/04/23 08:39:16;;;;;;;6.90;3.03;;;;;;;15.44;81.02;100470.78;5023384;28;20488;-61
2023/04/23 08:41:43;;;;;;;8.88;3.47;;;;;;;15.61;81.61;100476.06;5025713;28;20292;-61
2023/04/23 08:44:16;;;;;;;7.68;3.10;;;;;;;16.00;82.03;100474.50;5024240;28;20045;-61
2023/04/23 08:46:43;;;;;;;5.70;2.85;;;;;;;16.55;80.36;100469.22;5024019;28;20029;-59
2023/04/23 08:49:14;;;;;;;5.78;2.55;;;;;;;16.92;77.81;100477.22;5026325;28;20227;-61
2023/04/23 08:51:45;;;;;;;5.03;2.55;;;;;;;16.92;75.06;100473.59;5029167;28;20031;-61
2023/04/23 08:54:14;;;;;;;5.55;2.78;;;;;;;17.11;73.82;100469.94;5022796;28;20588;-62
2023/04/23 08:56:40;;;;;;;7.82;2.50;;;;;;;17.59;71.11;100461.94;5025074;28;20503;-60
2023/04/23 08:59:06;;;;;;;6.65;2.40;;;;;;;18.14;68.39;100462.66;5024038;28;20076;-61
2023/04/23 09:01:32;;;;;;;6.47;2.20;;;;;;;18.75;65.10;100457.69;5024759;28;20032;-61
2023/04/23 09:03:59;;;;;;;6.05;2.15;;;;;;;19.78;61.24;100461.69;5024548;28;20484;-61
2023/04/23 09:06:25;;;;;;;5.88;1.98;;;;;;;19.99;58.42;100470.56;5022556;28;20105;-61
2023/04/23 09:08:51;;;;;;;6.55;2.40;;;;;;;19.70;59.06;100465.13;5023874;28;20031;-61
2023/04/23 09:11:17;;;;;;;5.50;1.92;;;;;;;20.10;56.95;100468.44;5023871;28;20648;-61
2023/04/23 09:13:43;;;;;;;4.95;1.75;;;;;;;20.41;55.52;100474.31;5023147;28;21351;-61
2023/04/23 09:16:09;;;;;;;5.40;1.50;;;;;;;20.84;53.28;100462.97;5024849;28;20037;-59
2023/04/23 09:18:34;;;;;;;5.72;1.90;;;;;;;20.64;54.49;100464.19;5027223;28;20460;-59
2023/04/23 09:21:00;;;;;;;4.60;1.70;;;;;;;20.34;54.89;100465.53;5022315;28;20060;-59
2023/04/23 09:23:25;;;;;;;5.45;1.83;;;;;;;20.69;53.97;100464.09;5023391;28;20106;-60
2023/04/23 09:25:51;;;;;;;7.40;1.90;;;;;;;21.23;52.81;100468.84;5023762;28;20033;-60
2023/04/23 09:28:16;;;;;;;5.65;2.10;;;;;;;21.98;51.68;100452.69;5024984;28;20484;-59
2023/04/23 09:30:43;;;;;;;4.32;1.90;;;;;;;22.73;49.61;100453.84;5023232;28;20017;-60
2023/04/23 09:33:12;;;;;;;4.22;1.42;;;;;;;22.33;48.95;100451.00;5023712;28;20037;-59
2023/04/23 09:35:38;;;;;;;5.28;1.67;;;;;;;22.66;49.96;100448.72;5014824;28;20029;-55
2023/04/23 09:38:06;;;;;;;4.82;1.73;;;;;;;23.60;49.60;100443.75;5022125;28;20028;-59
2023/04/23 09:40:32;;;;;;;5.82;1.98;;;;;;;23.71;45.25;100453.53;5022325;28;20125;-60
2023/04/23 09:42:58;;;;;;;5.35;1.73;;;;;;;24.05;43.81;100449.09;5023621;28;20175;-60
2023/04/23 09:45:26;;;;;;;4.97;1.83;;;;;;;23.68;44.30;100448.59;5022587;28;20052;-58
2023/04/23 09:47:56;;;;;;;5.32;1.48;;;;;;;23.14;44.81;100445.16;5024434;28;20427;-60
2023/04/23 09:50:37;;;;;;;4.47;1.15;;;;;;;23.27;45.76;100447.00;5023884;28;20396;-60
2023/04/23 09:53:03;;;;;;;5.15;1.50;;;;;;;24.33;43.76;100439.16;5023047;28;20313;-59
2023/04/23 09:55:37;;;;;;;5.65;1.33;;;;;;;25.12;40.43;100442.56;5022759;28;20036;-60
2023/04/23 09:58:11;;;;;;;4.57;1.20;;;;;;;23.95;40.28;100432.59;5023952;28;20365;-57
2023/04/23 10:00:38;;;;;;;3.40;1.23;;;;;;;22.76;39.00;100430.81;5022310;28;20121;-59
2023/04/23 10:03:05;;;;;;;5.95;1.50;;;;;;;21.82;41.57;100429.03;5022657;28;20029;-60
2023/04/23 10:05:31;;;;;;;5.07;1.20;;;;;;;20.88;43.23;100433.28;5033218;28;20032;-60
2023/04/23 10:07:56;;;;;;;4.60;1.20;;;;;;;20.14;45.31;100436.84;5022601;28;20025;-59
2023/04/23 10:10:22;;;;;;;4.68;1.38;;;;;;;19.45;46.76;100430.91;5006446;28;20026;-59
2023/04/23 10:12:50;;;;;;;5.40;1.33;;;;;;;19.53;49.28;100431.38;5006275;28;20025;-60
2023/04/23 10:15:15;;;;;;;4.85;1.65;;;;;;;19.61;48.99;100433.50;5025878;28;20029;-60
2023/04/23 10:17:41;;;;;;;5.05;1.45;;;;;;;19.27;49.24;100419.78;5035841;28;20048;-59
2023/04/23 10:20:08;;;;;;;5.55;1.48;;;;;;;18.91;52.26;100425.81;5025098;28;20090;-60
2023/04/23 10:22:34;;;;;;;6.15;1.52;;;;;;;18.77;50.93;100428.47;5027957;28;20034;-59
2023/04/23 10:25:05;;;;;;;6.07;1.77;;;;;;;18.91;51.39;100418.28;5032154;28;20039;-60
2023/04/23 10:27:30;;;;;;;4.00;1.23;;;;;;;19.61;50.28;100422.34;5027441;28;20033;-60
2023/04/23 10:29:56;;;;;;;6.72;1.67;;;;;;;20.10;47.55;100421.84;5025557;28;20038;-60
2023/04/23 10:32:22;;;;;;;5.07;1.60;;;;;;;20.87;47.37;100418.50;5026247;28;20029;-60
2023/04/23 10:34:48;;;;;;;4.65;1.30;;;;;;;21.31;47.09;100413.44;5025219;28;20025;-60
2023/04/23 10:37:14;;;;;;;4.40;1.40;;;;;;;21.38;45.59;100405.44;5025475;28;20388;-60
2023/04/23 10:39:42;;;;;;;5.03;1.40;;;;;;;21.19;45.24;100406.41;5023929;28;20041;-61
2023/04/23 10:42:09;;;;;;;3.92;1.50;;;;;;;20.79;46.29;100413.66;5025333;28;20040;-59
2023/04/23 10:44:40;;;;;;;3.53;1.35;;;;;;;20.26;47.77;100410.44;5009446;28;20411;-60
2023/04/23 10:47:06;;;;;;;3.88;1.42;;;;;;;19.73;49.27;100408.81;5024072;28;20029;-60
2023/04/23 10:49:32;;;;;;;5.15;1.40;;;;;;;19.27;49.80;100403.06;5025399;28;20030;-60
2023/04/23 10:52:00;;;;;;;3.58;1.20;;;;;;;18.92;51.31;100394.06;5024879;28;20022;-60
2023/04/23 10:54:30;;;;;;;4.30;1.30;;;;;;;18.66;52.48;100399.06;5023386;28;20026;-60
2023/04/23 10:57:07;;;;;;;3.13;1.38;;;;;;;18.35;54.77;100387.44;5025338;28;20555;-60
2023/04/23 10:59:33;;;;;;;4.07;1.38;;;;;;;18.10;54.41;100389.34;5024798;28;20377;-61
2023/04/23 11:02:10;;;;;;;6.30;1.60;;;;;;;18.00;56.30;100386.66;5030504;28;20104;-60
2023/04/23 11:04:40;;;;;;;4.18;1.50;;;;;;;18.08;55.93;100385.19;5023582;28;20071;-61
2023/04/23 11:07:07;;;;;;;6.85;1.70;;;;;;;18.71;57.06;100379.56;5014720;28;20055;-60
2023/04/23 11:09:44;;;;;;;3.20;1.35;;;;;;;19.23;54.04;100366.63;5023783;28;20383;-58